sensor_id;sensor_type;location;lat;lon;timestamp;temperature;humidity
26107;DHT22;13866;50.748;12.630;2022-10-16T00:00:28;15.20;99.90
26107;DHT22;13866;50.748;12.630;2022-10-16T00:02:54;15.30;99.90
26107;DHT22;13866;50.748;12.630;2022-10-16T00:05:20;15.30;99.90
26107;DHT22;13866;50.748;12.630;2022-10-16T00:07:46;15.30;99.90
26107;DHT22;13866;50.748;12.630;2022-10-16T00:10:11;15.30;99.90
26107;DHT22;13866;50.748;12.630;2022-10-16T00:12:37;15.30;99.90
26107;DHT22;13866;50.748;12.630;2022-10-16T00:15:02;15.40;99.90
26107;DHT22;13866;50.748;12.630;2022-10-16T00:17:29;15.40;99.90
26107;DHT22;13866;50.748;12.630;2022-10-16T00:19:55;15.40;99.90
26107;DHT22;13866;50.748;12.630;2022-10-16T00:22:20;15.40;99.90
26107;DHT22;13866;50.748;12.630;2022-10-16T00:24:46;15.40;99.90
26107;DHT22;13866;50.748;12.630;2022-10-16T00:27:11;15.50;99.90
26107;DHT22;13866;50.748;12.630;2022-10-16T00:29:37;15.50;99.90
26107;DHT22;13866;50.748;12.630;2022-10-16T00:32:02;15.50;99.90
26107;DHT22;13866;50.748;12.630;2022-10-16T00:34:28;15.50;99.90
26107;DHT22;13866;50.748;12.630;2022-10-16T00:36:53;15.50;99.90
26107;DHT22;13866;50.748;12.630;2022-10-16T00:39:19;15.50;99.90
26107;DHT22;13866;50.748;12.630;2022-10-16T00:41:45;15.50;99.90
26107;DHT22;13866;50.748;12.630;2022-10-16T00:47:10;15.40;99.90
26107;DHT22;13866;50.748;12.630;2022-10-16T00:49:36;15.40;99.90
26107;DHT22;13866;50.748;12.630;2022-10-16T00:52:01;15.40;99.90
26107;DHT22;13866;50.748;12.630;2022-10-16T00:54:29;15.40;99.90
26107;DHT22;13866;50.748;12.630;2022-10-16T00:56:59;15.40;99.90
26107;DHT22;13866;50.748;12.630;2022-10-16T00:59:28;15.40;99.90
26107;DHT22;13866;50.748;12.630;2022-10-16T01:01:56;15.50;99.90
26107;DHT22;13866;50.748;12.630;2022-10-16T01:04:23;15.50;99.90
26107;DHT22;13866;50.748;12.630;2022-10-16T01:14:53;15.50;99.90
26107;DHT22;13866;50.748;12.630;2022-10-16T01:17:30;15.50;99.90
26107;DHT22;13866;50.748;12.630;2022-10-16T01:20:24;15.50;99.90
26107;DHT22;13866;50.748;12.630;2022-10-16T01:23:05;15.40;99.90
26107;DHT22;13866;50.748;12.630;2022-10-16T01:25:49;15.40;99.90
26107;DHT22;13866;50.748;12.630;2022-10-16T01:28:19;15.40;99.90
26107;DHT22;13866;50.748;12.630;2022-10-16T01:30:47;15.40;99.90
26107;DHT22;13866;50.748;12.630;2022-10-16T01:33:21;15.40;99.90
26107;DHT22;13866;50.748;12.630;2022-10-16T01:35:54;15.30;99.90
26107;DHT22;13866;50.748;12.630;2022-10-16T01:38:34;15.30;99.90
26107;DHT22;13866;50.748;12.630;2022-10-16T01:41:27;15.30;99.90
26107;DHT22;13866;50.748;12.630;2022-10-16T01:44:01;15.20;99.90
26107;DHT22;13866;50.748;12.630;2022-10-16T01:46:30;15.20;99.90
26107;DHT22;13866;50.748;12.630;2022-10-16T01:48:57;15.20;99.90
26107;DHT22;13866;50.748;12.630;2022-10-16T01:51:23;15.10;99.90
26107;DHT22;13866;50.748;12.630;2022-10-16T01:53:53;15.10;99.90
26107;DHT22;13866;50.748;12.630;2022-10-16T01:56:20;15.10;99.90
26107;DHT22;13866;50.748;12.630;2022-10-16T01:59:12;15.10;99.90
26107;DHT22;13866;50.748;12.630;2022-10-16T02:01:40;15.10;99.90
26107;DHT22;13866;50.748;12.630;2022-10-16T02:04:14;15.00;99.90
26107;DHT22;13866;50.748;12.630;2022-10-16T02:06:40;15.10;99.90
26107;DHT22;13866;50.748;12.630;2022-10-16T02:09:05;15.10;99.90
26107;DHT22;13866;50.748;12.630;2022-10-16T02:11:31;15.10;99.90
26107;DHT22;13866;50.748;12.630;2022-10-16T02:14:06;15.10;99.90
26107;DHT22;13866;50.748;12.630;2022-10-16T02:16:52;15.10;99.90
26107;DHT22;13866;50.748;12.630;2022-10-16T02:19:19;15.10;99.90
26107;DHT22;13866;50.748;12.630;2022-10-16T02:22:01;15.10;99.90
26107;DHT22;13866;50.748;12.630;2022-10-16T02:24:38;15.10;99.90
26107;DHT22;13866;50.748;12.630;2022-10-16T02:29:48;15.10;99.90
26107;DHT22;13866;50.748;12.630;2022-10-16T02:32:22;15.20;99.90
26107;DHT22;13866;50.748;12.630;2022-10-16T02:34:49;15.10;99.90
26107;DHT22;13866;50.748;12.630;2022-10-16T02:37:16;15.00;99.90
26107;DHT22;13866;50.748;12.630;2022-10-16T02:39:43;15.10;99.90
26107;DHT22;13866;50.748;12.630;2022-10-16T02:42:13;15.10;99.90
26107;DHT22;13866;50.748;12.630;2022-10-16T02:44:39;15.10;99.90
26107;DHT22;13866;50.748;12.630;2022-10-16T02:47:04;15.10;99.90
26107;DHT22;13866;50.748;12.630;2022-10-16T02:49:30;15.10;99.90
26107;DHT22;13866;50.748;12.630;2022-10-16T02:51:55;15.10;99.90
26107;DHT22;13866;50.748;12.630;2022-10-16T02:54:21;15.10;99.90
26107;DHT22;13866;50.748;12.630;2022-10-16T02:56:46;15.10;99.90
26107;DHT22;13866;50.748;12.630;2022-10-16T02:59:12;15.10;99.90
26107;DHT22;13866;50.748;12.630;2022-10-16T03:01:37;15.10;99.90
26107;DHT22;13866;50.748;12.630;2022-10-16T03:04:03;15.10;99.90
26107;DHT22;13866;50.748;12.630;2022-10-16T03:06:28;15.10;99.90
26107;DHT22;13866;50.748;12.630;2022-10-16T03:08:54;15.10;99.90
26107;DHT22;13866;50.748;12.630;2022-10-16T03:11:19;15.20;99.90
26107;DHT22;13866;50.748;12.630;2022-10-16T03:13:45;15.20;99.90
26107;DHT22;13866;50.748;12.630;2022-10-16T03:16:10;15.20;99.90
26107;DHT22;13866;50.748;12.630;2022-10-16T03:18:36;15.20;99.90
26107;DHT22;13866;50.748;12.630;2022-10-16T03:21:01;15.20;99.90
26107;DHT22;13866;50.748;12.630;2022-10-16T03:23:27;15.10;99.90
26107;DHT22;13866;50.748;12.630;2022-10-16T03:25:53;15.10;99.90
26107;DHT22;13866;50.748;12.630;2022-10-16T03:28:19;15.10;99.90
26107;DHT22;13866;50.748;12.630;2022-10-16T03:30:44;15.10;99.90
26107;DHT22;13866;50.748;12.630;2022-10-16T03:33:10;15.10;99.90
26107;DHT22;13866;50.748;12.630;2022-10-16T03:35:36;15.10;99.90
26107;DHT22;13866;50.748;12.630;2022-10-16T03:38:01;15.00;99.90
26107;DHT22;13866;50.748;12.630;2022-10-16T03:40:27;15.10;99.90
26107;DHT22;13866;50.748;12.630;2022-10-16T03:42:52;15.10;99.90
26107;DHT22;13866;50.748;12.630;2022-10-16T03:45:20;15.20;99.90
26107;DHT22;13866;50.748;12.630;2022-10-16T03:47:46;15.20;99.90
26107;DHT22;13866;50.748;12.630;2022-10-16T03:50:12;15.20;99.90
26107;DHT22;13866;50.748;12.630;2022-10-16T03:52:38;15.20;99.90
26107;DHT22;13866;50.748;12.630;2022-10-16T03:55:03;15.20;99.90
26107;DHT22;13866;50.748;12.630;2022-10-16T03:57:29;15.10;99.90
26107;DHT22;13866;50.748;12.630;2022-10-16T03:59:55;15.10;99.90
26107;DHT22;13866;50.748;12.630;2022-10-16T04:02:20;15.10;99.90
26107;DHT22;13866;50.748;12.630;2022-10-16T04:04:46;15.10;99.90
26107;DHT22;13866;50.748;12.630;2022-10-16T04:07:11;15.00;99.90
26107;DHT22;13866;50.748;12.630;2022-10-16T04:09:37;15.00;99.90
26107;DHT22;13866;50.748;12.630;2022-10-16T04:12:02;15.00;99.90
26107;DHT22;13866;50.748;12.630;2022-10-16T04:14:28;15.00;99.90
26107;DHT22;13866;50.748;12.630;2022-10-16T04:16:53;15.00;99.90
26107;DHT22;13866;50.748;12.630;2022-10-16T04:19:19;14.90;99.90
26107;DHT22;13866;50.748;12.630;2022-10-16T04:21:44;14.90;99.90
26107;DHT22;13866;50.748;12.630;2022-10-16T04:24:10;14.90;99.90
26107;DHT22;13866;50.748;12.630;2022-10-16T04:26:36;14.90;99.90
26107;DHT22;13866;50.748;12.630;2022-10-16T04:29:02;14.90;99.90
26107;DHT22;13866;50.748;12.630;2022-10-16T04:31:28;14.90;99.90
26107;DHT22;13866;50.748;12.630;2022-10-16T04:33:53;14.90;99.90
26107;DHT22;13866;50.748;12.630;2022-10-16T04:36:19;14.90;99.90
26107;DHT22;13866;50.748;12.630;2022-10-16T04:38:44;14.90;99.90
26107;DHT22;13866;50.748;12.630;2022-10-16T04:41:10;14.90;99.90
26107;DHT22;13866;50.748;12.630;2022-10-16T04:43:35;15.00;99.90
26107;DHT22;13866;50.748;12.630;2022-10-16T04:46:01;15.00;99.90
26107;DHT22;13866;50.748;12.630;2022-10-16T04:48:27;15.00;99.90
26107;DHT22;13866;50.748;12.630;2022-10-16T04:50:52;15.00;99.90
26107;DHT22;13866;50.748;12.630;2022-10-16T04:53:18;15.00;99.90
26107;DHT22;13866;50.748;12.630;2022-10-16T04:55:43;15.00;99.90
26107;DHT22;13866;50.748;12.630;2022-10-16T04:58:09;15.00;99.90
26107;DHT22;13866;50.748;12.630;2022-10-16T05:00:35;14.90;99.90
26107;DHT22;13866;50.748;12.630;2022-10-16T05:03:01;14.90;99.90
26107;DHT22;13866;50.748;12.630;2022-10-16T05:05:27;14.90;99.90
26107;DHT22;13866;50.748;12.630;2022-10-16T05:07:53;14.90;99.90
26107;DHT22;13866;50.748;12.630;2022-10-16T05:10:19;14.90;99.90
26107;DHT22;13866;50.748;12.630;2022-10-16T05:12:45;14.90;99.90
26107;DHT22;13866;50.748;12.630;2022-10-16T05:15:10;14.90;99.90
26107;DHT22;13866;50.748;12.630;2022-10-16T05:17:36;14.90;99.90
26107;DHT22;13866;50.748;12.630;2022-10-16T05:20:02;14.90;99.90
26107;DHT22;13866;50.748;12.630;2022-10-16T05:22:28;14.90;99.90
26107;DHT22;13866;50.748;12.630;2022-10-16T05:24:54;15.00;99.90
26107;DHT22;13866;50.748;12.630;2022-10-16T05:27:19;15.00;99.90
26107;DHT22;13866;50.748;12.630;2022-10-16T05:29:46;15.00;99.90
26107;DHT22;13866;50.748;12.630;2022-10-16T05:32:13;15.00;99.90
26107;DHT22;13866;50.748;12.630;2022-10-16T05:34:39;15.00;99.90
26107;DHT22;13866;50.748;12.630;2022-10-16T05:37:04;15.00;99.90
26107;DHT22;13866;50.748;12.630;2022-10-16T05:39:30;15.00;99.90
26107;DHT22;13866;50.748;12.630;2022-10-16T05:41:56;15.00;99.90
26107;DHT22;13866;50.748;12.630;2022-10-16T05:44:21;15.00;99.90
26107;DHT22;13866;50.748;12.630;2022-10-16T05:46:47;15.00;99.90
26107;DHT22;13866;50.748;12.630;2022-10-16T05:49:12;15.00;99.90
26107;DHT22;13866;50.748;12.630;2022-10-16T05:51:38;14.90;99.90
26107;DHT22;13866;50.748;12.630;2022-10-16T05:54:03;14.90;99.90
26107;DHT22;13866;50.748;12.630;2022-10-16T05:56:29;14.90;99.90
26107;DHT22;13866;50.748;12.630;2022-10-16T05:58:54;14.90;99.90
26107;DHT22;13866;50.748;12.630;2022-10-16T06:01:20;14.90;99.90
26107;DHT22;13866;50.748;12.630;2022-10-16T06:03:53;14.90;99.90
26107;DHT22;13866;50.748;12.630;2022-10-16T06:06:20;14.90;99.90
26107;DHT22;13866;50.748;12.630;2022-10-16T06:08:47;14.90;99.90
26107;DHT22;13866;50.748;12.630;2022-10-16T06:11:19;14.90;99.90
26107;DHT22;13866;50.748;12.630;2022-10-16T06:13:44;14.90;99.90
26107;DHT22;13866;50.748;12.630;2022-10-16T06:16:11;14.90;99.90
26107;DHT22;13866;50.748;12.630;2022-10-16T06:18:37;14.80;99.90
26107;DHT22;13866;50.748;12.630;2022-10-16T06:21:12;14.80;99.90
26107;DHT22;13866;50.748;12.630;2022-10-16T06:23:38;14.80;99.90
26107;DHT22;13866;50.748;12.630;2022-10-16T06:26:08;14.80;99.90
26107;DHT22;13866;50.748;12.630;2022-10-16T06:28:34;14.80;99.90
26107;DHT22;13866;50.748;12.630;2022-10-16T06:31:00;14.80;99.90
26107;DHT22;13866;50.748;12.630;2022-10-16T06:33:26;14.80;99.90
26107;DHT22;13866;50.748;12.630;2022-10-16T06:35:51;14.90;99.90
26107;DHT22;13866;50.748;12.630;2022-10-16T06:38:17;15.00;99.90
26107;DHT22;13866;50.748;12.630;2022-10-16T06:40:43;15.10;99.90
26107;DHT22;13866;50.748;12.630;2022-10-16T06:43:08;15.10;99.90
26107;DHT22;13866;50.748;12.630;2022-10-16T06:45:33;15.10;99.90
26107;DHT22;13866;50.748;12.630;2022-10-16T06:47:59;15.20;99.90
26107;DHT22;13866;50.748;12.630;2022-10-16T06:50:25;15.20;99.90
26107;DHT22;13866;50.748;12.630;2022-10-16T06:52:50;15.20;99.90
26107;DHT22;13866;50.748;12.630;2022-10-16T06:55:16;15.30;99.90
26107;DHT22;13866;50.748;12.630;2022-10-16T06:57:43;15.30;99.90
26107;DHT22;13866;50.748;12.630;2022-10-16T07:00:09;15.30;99.90
26107;DHT22;13866;50.748;12.630;2022-10-16T07:02:35;15.30;99.90
26107;DHT22;13866;50.748;12.630;2022-10-16T07:05:00;15.40;99.90
26107;DHT22;13866;50.748;12.630;2022-10-16T07:07:26;15.50;99.90
26107;DHT22;13866;50.748;12.630;2022-10-16T07:09:52;15.60;99.90
26107;DHT22;13866;50.748;12.630;2022-10-16T07:12:18;15.60;99.90
26107;DHT22;13866;50.748;12.630;2022-10-16T07:14:43;15.70;99.90
26107;DHT22;13866;50.748;12.630;2022-10-16T07:17:09;15.80;99.90
26107;DHT22;13866;50.748;12.630;2022-10-16T07:19:34;15.90;99.90
26107;DHT22;13866;50.748;12.630;2022-10-16T07:22:00;15.90;99.90
26107;DHT22;13866;50.748;12.630;2022-10-16T07:24:26;16.00;99.90
26107;DHT22;13866;50.748;12.630;2022-10-16T07:26:51;16.00;99.90
26107;DHT22;13866;50.748;12.630;2022-10-16T07:29:20;16.00;99.90
26107;DHT22;13866;50.748;12.630;2022-10-16T07:31:46;16.10;99.90
26107;DHT22;13866;50.748;12.630;2022-10-16T07:34:13;16.10;99.90
26107;DHT22;13866;50.748;12.630;2022-10-16T07:36:39;16.20;99.90
26107;DHT22;13866;50.748;12.630;2022-10-16T07:39:04;16.20;99.90
26107;DHT22;13866;50.748;12.630;2022-10-16T07:41:30;16.30;99.90
26107;DHT22;13866;50.748;12.630;2022-10-16T07:43:58;16.40;99.90
26107;DHT22;13866;50.748;12.630;2022-10-16T07:46:26;16.50;99.90
26107;DHT22;13866;50.748;12.630;2022-10-16T07:48:52;16.50;99.90
26107;DHT22;13866;50.748;12.630;2022-10-16T07:51:23;16.60;99.90
26107;DHT22;13866;50.748;12.630;2022-10-16T07:53:49;16.70;99.90
26107;DHT22;13866;50.748;12.630;2022-10-16T07:56:16;16.80;99.90
26107;DHT22;13866;50.748;12.630;2022-10-16T07:58:42;16.90;99.90
26107;DHT22;13866;50.748;12.630;2022-10-16T08:01:10;16.90;99.90
26107;DHT22;13866;50.748;12.630;2022-10-16T08:03:36;17.00;99.90
26107;DHT22;13866;50.748;12.630;2022-10-16T08:06:03;17.00;99.90
26107;DHT22;13866;50.748;12.630;2022-10-16T08:08:29;17.10;99.90
26107;DHT22;13866;50.748;12.630;2022-10-16T08:10:55;17.20;99.90
26107;DHT22;13866;50.748;12.630;2022-10-16T08:13:21;17.30;99.90
26107;DHT22;13866;50.748;12.630;2022-10-16T08:15:47;17.30;99.90
26107;DHT22;13866;50.748;12.630;2022-10-16T08:18:14;17.20;99.90
26107;DHT22;13866;50.748;12.630;2022-10-16T08:20:40;17.20;99.90
26107;DHT22;13866;50.748;12.630;2022-10-16T08:23:07;17.20;99.90
26107;DHT22;13866;50.748;12.630;2022-10-16T08:25:35;17.20;99.90
26107;DHT22;13866;50.748;12.630;2022-10-16T08:28:03;17.20;99.90
26107;DHT22;13866;50.748;12.630;2022-10-16T08:30:30;17.20;99.90
26107;DHT22;13866;50.748;12.630;2022-10-16T08:32:55;17.30;99.90
26107;DHT22;13866;50.748;12.630;2022-10-16T08:35:20;17.40;99.90
26107;DHT22;13866;50.748;12.630;2022-10-16T08:37:46;17.40;99.90
26107;DHT22;13866;50.748;12.630;2022-10-16T08:40:18;17.40;99.90
26107;DHT22;13866;50.748;12.630;2022-10-16T08:51:01;17.70;99.90
26107;DHT22;13866;50.748;12.630;2022-10-16T08:53:36;17.60;99.90
26107;DHT22;13866;50.748;12.630;2022-10-16T08:56:04;17.60;99.90
26107;DHT22;13866;50.748;12.630;2022-10-16T08:58:30;17.70;99.90
26107;DHT22;13866;50.748;12.630;2022-10-16T09:01:01;17.70;99.90
26107;DHT22;13866;50.748;12.630;2022-10-16T09:06:07;17.80;99.90
26107;DHT22;13866;50.748;12.630;2022-10-16T09:08:42;17.90;99.90
26107;DHT22;13866;50.748;12.630;2022-10-16T09:11:30;17.90;99.90
26107;DHT22;13866;50.748;12.630;2022-10-16T09:16:59;18.00;99.90
26107;DHT22;13866;50.748;12.630;2022-10-16T09:19:36;18.10;99.90
26107;DHT22;13866;50.748;12.630;2022-10-16T09:22:12;18.10;99.90
26107;DHT22;13866;50.748;12.630;2022-10-16T09:24:38;18.10;99.90
26107;DHT22;13866;50.748;12.630;2022-10-16T09:27:03;18.10;99.90
26107;DHT22;13866;50.748;12.630;2022-10-16T09:29:29;18.20;99.90
26107;DHT22;13866;50.748;12.630;2022-10-16T09:31:57;18.20;99.90
26107;DHT22;13866;50.748;12.630;2022-10-16T09:34:39;18.20;99.90
26107;DHT22;13866;50.748;12.630;2022-10-16T09:37:14;18.20;99.90
26107;DHT22;13866;50.748;12.630;2022-10-16T09:39:53;18.20;99.90
26107;DHT22;13866;50.748;12.630;2022-10-16T09:42:21;18.20;99.90
26107;DHT22;13866;50.748;12.630;2022-10-16T09:44:49;18.20;99.90
26107;DHT22;13866;50.748;12.630;2022-10-16T09:47:21;18.10;99.90
26107;DHT22;13866;50.748;12.630;2022-10-16T09:49:53;18.20;99.90
26107;DHT22;13866;50.748;12.630;2022-10-16T09:52:19;18.10;99.90
26107;DHT22;13866;50.748;12.630;2022-10-16T09:54:56;18.10;99.90
26107;DHT22;13866;50.748;12.630;2022-10-16T09:57:22;18.10;99.90
26107;DHT22;13866;50.748;12.630;2022-10-16T09:59:52;18.20;99.90
26107;DHT22;13866;50.748;12.630;2022-10-16T10:02:30;18.20;99.90
26107;DHT22;13866;50.748;12.630;2022-10-16T10:04:56;18.30;99.90
26107;DHT22;13866;50.748;12.630;2022-10-16T10:07:31;18.40;99.90
26107;DHT22;13866;50.748;12.630;2022-10-16T10:10:02;18.60;99.90
26107;DHT22;13866;50.748;12.630;2022-10-16T10:12:30;18.70;99.90
26107;DHT22;13866;50.748;12.630;2022-10-16T10:15:03;18.80;99.90
26107;DHT22;13866;50.748;12.630;2022-10-16T10:17:29;18.80;99.90
26107;DHT22;13866;50.748;12.630;2022-10-16T10:19:58;18.90;99.90
26107;DHT22;13866;50.748;12.630;2022-10-16T10:22:32;18.80;99.90
26107;DHT22;13866;50.748;12.630;2022-10-16T10:36:09;18.80;99.90
26107;DHT22;13866;50.748;12.630;2022-10-16T10:38:57;18.80;99.90
26107;DHT22;13866;50.748;12.630;2022-10-16T10:41:34;18.90;99.90
26107;DHT22;13866;50.748;12.630;2022-10-16T10:46:59;19.00;99.90
26107;DHT22;13866;50.748;12.630;2022-10-16T10:55:16;19.40;99.90
26107;DHT22;13866;50.748;12.630;2022-10-16T10:58:15;19.50;99.90
26107;DHT22;13866;50.748;12.630;2022-10-16T11:06:36;20.00;99.90
26107;DHT22;13866;50.748;12.630;2022-10-16T11:12:21;20.30;99.90
26107;DHT22;13866;50.748;12.630;2022-10-16T11:15:20;20.40;99.90
26107;DHT22;13866;50.748;12.630;2022-10-16T11:18:06;20.50;99.90
26107;DHT22;13866;50.748;12.630;2022-10-16T11:20:37;20.60;99.90
26107;DHT22;13866;50.748;12.630;2022-10-16T11:25:51;20.70;99.90
26107;DHT22;13866;50.748;12.630;2022-10-16T11:34:01;20.50;99.90
26107;DHT22;13866;50.748;12.630;2022-10-16T11:36:33;20.40;99.90
26107;DHT22;13866;50.748;12.630;2022-10-16T11:47:36;20.40;99.90
26107;DHT22;13866;50.748;12.630;2022-10-16T11:50:17;20.50;99.90
26107;DHT22;13866;50.748;12.630;2022-10-16T11:55:40;20.50;99.90
26107;DHT22;13866;50.748;12.630;2022-10-16T11:58:25;20.60;99.90
26107;DHT22;13866;50.748;12.630;2022-10-16T12:03:41;20.80;99.90
26107;DHT22;13866;50.748;12.630;2022-10-16T12:06:30;20.70;99.90
26107;DHT22;13866;50.748;12.630;2022-10-16T12:08:59;20.80;99.90
26107;DHT22;13866;50.748;12.630;2022-10-16T12:16:58;20.80;99.90
26107;DHT22;13866;50.748;12.630;2022-10-16T12:19:27;20.60;99.90
26107;DHT22;13866;50.748;12.630;2022-10-16T12:21:56;20.60;99.90
26107;DHT22;13866;50.748;12.630;2022-10-16T12:24:33;20.60;99.90
26107;DHT22;13866;50.748;12.630;2022-10-16T12:26:59;20.60;99.90
26107;DHT22;13866;50.748;12.630;2022-10-16T12:29:38;20.50;99.90
26107;DHT22;13866;50.748;12.630;2022-10-16T12:34:47;20.60;99.90
26107;DHT22;13866;50.748;12.630;2022-10-16T12:37:22;20.60;99.90
26107;DHT22;13866;50.748;12.630;2022-10-16T12:39:50;20.50;99.90
26107;DHT22;13866;50.748;12.630;2022-10-16T12:42:32;20.50;99.90
26107;DHT22;13866;50.748;12.630;2022-10-16T12:44:58;20.40;99.90
26107;DHT22;13866;50.748;12.630;2022-10-16T12:47:38;20.30;99.90
26107;DHT22;13866;50.748;12.630;2022-10-16T12:52:57;20.00;99.90
26107;DHT22;13866;50.748;12.630;2022-10-16T12:55:23;20.00;99.90
26107;DHT22;13866;50.748;12.630;2022-10-16T13:06:43;20.40;99.90
26107;DHT22;13866;50.748;12.630;2022-10-16T13:09:53;20.40;99.90
26107;DHT22;13866;50.748;12.630;2022-10-16T13:15:25;20.30;99.90
26107;DHT22;13866;50.748;12.630;2022-10-16T13:18:02;20.20;99.90
26107;DHT22;13866;50.748;12.630;2022-10-16T13:21:00;20.20;99.90
26107;DHT22;13866;50.748;12.630;2022-10-16T13:28:53;20.10;99.90
26107;DHT22;13866;50.748;12.630;2022-10-16T13:31:22;20.10;99.90
26107;DHT22;13866;50.748;12.630;2022-10-16T13:33:55;20.00;99.90
26107;DHT22;13866;50.748;12.630;2022-10-16T13:36:24;20.00;99.90
26107;DHT22;13866;50.748;12.630;2022-10-16T13:39:10;20.00;99.90
26107;DHT22;13866;50.748;12.630;2022-10-16T13:41:36;20.10;99.90
26107;DHT22;13866;50.748;12.630;2022-10-16T13:44:02;20.00;99.90
26107;DHT22;13866;50.748;12.630;2022-10-16T13:46:27;20.00;99.90
26107;DHT22;13866;50.748;12.630;2022-10-16T13:49:06;19.90;99.90
26107;DHT22;13866;50.748;12.630;2022-10-16T13:51:36;19.90;99.90
26107;DHT22;13866;50.748;12.630;2022-10-16T13:54:02;19.90;99.90
26107;DHT22;13866;50.748;12.630;2022-10-16T13:56:30;20.00;99.90
26107;DHT22;13866;50.748;12.630;2022-10-16T14:01:47;20.20;99.90
26107;DHT22;13866;50.748;12.630;2022-10-16T14:04:14;20.10;99.90
26107;DHT22;13866;50.748;12.630;2022-10-16T14:06:46;20.10;99.90
26107;DHT22;13866;50.748;12.630;2022-10-16T14:09:28;20.00;99.90
26107;DHT22;13866;50.748;12.630;2022-10-16T14:11:59;19.80;99.90
26107;DHT22;13866;50.748;12.630;2022-10-16T14:14:27;19.90;99.90
26107;DHT22;13866;50.748;12.630;2022-10-16T14:16:57;20.00;99.90
26107;DHT22;13866;50.748;12.630;2022-10-16T14:19:27;19.80;99.90
26107;DHT22;13866;50.748;12.630;2022-10-16T14:21:54;19.90;99.90
26107;DHT22;13866;50.748;12.630;2022-10-16T14:24:32;19.90;99.90
26107;DHT22;13866;50.748;12.630;2022-10-16T14:26:59;19.90;99.90
26107;DHT22;13866;50.748;12.630;2022-10-16T14:29:26;19.80;99.90
26107;DHT22;13866;50.748;12.630;2022-10-16T14:32:01;19.80;99.90
26107;DHT22;13866;50.748;12.630;2022-10-16T14:34:38;19.70;99.90
26107;DHT22;13866;50.748;12.630;2022-10-16T14:37:22;19.70;99.90
26107;DHT22;13866;50.748;12.630;2022-10-16T14:39:50;19.60;99.90
26107;DHT22;13866;50.748;12.630;2022-10-16T14:42:20;19.60;99.90
26107;DHT22;13866;50.748;12.630;2022-10-16T14:44:50;19.60;99.90
26107;DHT22;13866;50.748;12.630;2022-10-16T14:47:20;19.50;99.90
26107;DHT22;13866;50.748;12.630;2022-10-16T14:49:51;19.50;99.90
26107;DHT22;13866;50.748;12.630;2022-10-16T14:52:18;19.40;99.90
26107;DHT22;13866;50.748;12.630;2022-10-16T14:54:48;19.40;99.90
26107;DHT22;13866;50.748;12.630;2022-10-16T14:57:18;19.30;99.90
26107;DHT22;13866;50.748;12.630;2022-10-16T14:59:45;19.30;99.90
26107;DHT22;13866;50.748;12.630;2022-10-16T15:04:54;19.30;99.90
26107;DHT22;13866;50.748;12.630;2022-10-16T15:07:20;19.30;99.90
26107;DHT22;13866;50.748;12.630;2022-10-16T15:09:46;19.30;99.90
26107;DHT22;13866;50.748;12.630;2022-10-16T15:12:11;19.30;99.90
26107;DHT22;13866;50.748;12.630;2022-10-16T15:14:37;19.30;99.90
26107;DHT22;13866;50.748;12.630;2022-10-16T15:17:03;19.20;99.90
26107;DHT22;13866;50.748;12.630;2022-10-16T15:19:29;19.10;99.90
26107;DHT22;13866;50.748;12.630;2022-10-16T15:21:54;19.10;99.90
26107;DHT22;13866;50.748;12.630;2022-10-16T15:24:20;19.00;99.90
26107;DHT22;13866;50.748;12.630;2022-10-16T15:26:46;18.90;99.90
26107;DHT22;13866;50.748;12.630;2022-10-16T15:29:12;18.90;99.90
26107;DHT22;13866;50.748;12.630;2022-10-16T15:31:38;18.90;99.90
26107;DHT22;13866;50.748;12.630;2022-10-16T15:34:03;18.90;99.90
26107;DHT22;13866;50.748;12.630;2022-10-16T15:36:32;18.80;99.90
26107;DHT22;13866;50.748;12.630;2022-10-16T15:39:03;18.70;99.90
26107;DHT22;13866;50.748;12.630;2022-10-16T15:41:28;18.60;99.90
26107;DHT22;13866;50.748;12.630;2022-10-16T15:43:54;18.60;99.90
26107;DHT22;13866;50.748;12.630;2022-10-16T15:46:21;18.50;99.90
26107;DHT22;13866;50.748;12.630;2022-10-16T15:48:51;18.40;99.90
26107;DHT22;13866;50.748;12.630;2022-10-16T15:51:21;18.30;99.90
26107;DHT22;13866;50.748;12.630;2022-10-16T15:53:46;18.30;99.90
26107;DHT22;13866;50.748;12.630;2022-10-16T15:56:13;18.20;99.90
26107;DHT22;13866;50.748;12.630;2022-10-16T15:58:39;18.20;99.90
26107;DHT22;13866;50.748;12.630;2022-10-16T16:01:05;18.00;99.90
26107;DHT22;13866;50.748;12.630;2022-10-16T16:03:32;18.00;99.90
26107;DHT22;13866;50.748;12.630;2022-10-16T16:06:03;17.90;99.90
26107;DHT22;13866;50.748;12.630;2022-10-16T16:08:29;17.80;99.90
26107;DHT22;13866;50.748;12.630;2022-10-16T16:11:02;17.70;99.90
26107;DHT22;13866;50.748;12.630;2022-10-16T16:13:28;17.50;99.90
26107;DHT22;13866;50.748;12.630;2022-10-16T16:15:54;17.40;99.90
26107;DHT22;13866;50.748;12.630;2022-10-16T16:18:20;17.30;99.90
26107;DHT22;13866;50.748;12.630;2022-10-16T16:20:46;17.10;99.90
26107;DHT22;13866;50.748;12.630;2022-10-16T16:23:11;17.10;99.90
26107;DHT22;13866;50.748;12.630;2022-10-16T16:25:37;16.90;99.90
26107;DHT22;13866;50.748;12.630;2022-10-16T16:28:02;16.80;99.90
26107;DHT22;13866;50.748;12.630;2022-10-16T16:30:28;16.70;99.90
26107;DHT22;13866;50.748;12.630;2022-10-16T16:32:53;16.60;99.90
26107;DHT22;13866;50.748;12.630;2022-10-16T16:35:19;16.50;99.90
26107;DHT22;13866;50.748;12.630;2022-10-16T16:37:44;16.40;99.90
26107;DHT22;13866;50.748;12.630;2022-10-16T16:40:10;16.30;99.90
26107;DHT22;13866;50.748;12.630;2022-10-16T16:42:35;16.30;99.90
26107;DHT22;13866;50.748;12.630;2022-10-16T16:45:01;16.30;99.90
26107;DHT22;13866;50.748;12.630;2022-10-16T16:47:26;16.30;99.90
26107;DHT22;13866;50.748;12.630;2022-10-16T16:49:52;16.20;99.90
26107;DHT22;13866;50.748;12.630;2022-10-16T16:52:17;16.20;99.90
26107;DHT22;13866;50.748;12.630;2022-10-16T16:54:43;16.20;99.90
26107;DHT22;13866;50.748;12.630;2022-10-16T16:57:16;16.10;99.90
26107;DHT22;13866;50.748;12.630;2022-10-16T16:59:42;16.10;99.90
26107;DHT22;13866;50.748;12.630;2022-10-16T17:02:08;16.00;99.90
26107;DHT22;13866;50.748;12.630;2022-10-16T17:04:34;16.10;99.90
26107;DHT22;13866;50.748;12.630;2022-10-16T17:07:00;16.20;99.90
26107;DHT22;13866;50.748;12.630;2022-10-16T17:09:26;16.30;99.90
26107;DHT22;13866;50.748;12.630;2022-10-16T17:11:53;16.20;99.90
26107;DHT22;13866;50.748;12.630;2022-10-16T17:14:19;16.10;99.90
26107;DHT22;13866;50.748;12.630;2022-10-16T17:16:44;16.00;99.90